Time;durP1;ratioP1;P1;durP2;ratioP2;P2;SDS_P1;SDS_P2;PMS_P1;PMS_P2;Temp;Humidity;BMP_temperature;BMP_pressure;BME280_temperature;BME280_humidity;BME280_pressure;Samples;Min_cycle;Max_cycle;Signal;HPM_P1;HPM_P2
2023/08/17 00:01:25;;;;;;;;;;;23.70;61.70;;;;;;8496959;27;20403;-49
2023/08/17 00:05:26;;;;;;;;;;;23.70;61.70;;;;;;8478132;27;20393;-51
2023/08/17 00:09:27;;;;;;;;;;;23.70;61.70;;;;;;8496403;27;19907;-50
2023/08/17 00:13:27;;;;;;;;;;;23.70;61.70;;;;;;8496434;27;19919;-49
2023/08/17 00:17:28;;;;;;;;;;;23.70;61.70;;;;;;8496163;27;19935;-51
2023/08/17 00:21:28;;;;;;;;;;;23.70;61.70;;;;;;8496140;27;19994;-51
2023/08/17 00:25:29;;;;;;;;;;;23.70;61.70;;;;;;8496435;27;19918;-51
2023/08/17 00:29:30;;;;;;;;;;;23.70;61.70;;;;;;8495761;27;20376;-51
2023/08/17 00:33:30;;;;;;;;;;;23.70;61.70;;;;;;8495989;27;20257;-52
2023/08/17 00:37:31;;;;;;;;;;;23.70;61.70;;;;;;8495758;27;20164;-49
2023/08/17 00:41:31;;;;;;;;;;;23.70;61.70;;;;;;8494986;27;20010;-49
2023/08/17 00:45:32;;;;;;;;;;;23.70;61.70;;;;;;8495583;27;19918;-51
2023/08/17 00:49:33;;;;;;;;;;;23.70;61.70;;;;;;8476986;27;19907;-48
2023/08/17 00:53:34;;;;;;;;;;;23.70;61.70;;;;;;8495358;27;19915;-50
2023/08/17 00:57:35;;;;;;;;;;;23.70;61.70;;;;;;8495516;27;20373;-49
2023/08/17 01:01:35;;;;;;;;;;;23.70;61.70;;;;;;8495210;27;19912;-50
2023/08/17 01:05:37;;;;;;;;;;;23.70;61.70;;;;;;8495286;27;19912;-49
2023/08/17 01:09:38;;;;;;;;;;;23.70;61.70;;;;;;8495203;27;20378;-51
2023/08/17 01:13:58;;;;;;;;;;;23.70;61.70;;;;;;8495062;27;20265;-48
2023/08/17 01:18:08;;;;;;;;;;;23.70;61.70;;;;;;8495314;27;19926;-51
2023/08/17 01:22:10;;;;;;;;;;;23.70;61.70;;;;;;8480294;27;19956;-49
2023/08/17 01:26:15;;;;;;;;;;;23.70;61.70;;;;;;8496112;27;19907;-51
2023/08/17 01:30:16;;;;;;;;;;;23.70;61.70;;;;;;8494791;28;19912;-50
2023/08/17 01:34:19;;;;;;;;;;;23.70;61.70;;;;;;8494412;28;19998;-52
2023/08/17 01:38:21;;;;;;;;;;;23.70;61.70;;;;;;8495405;28;19962;-50
2023/08/17 01:42:23;;;;;;;;;;;23.70;61.70;;;;;;8494453;28;19914;-50
2023/08/17 01:46:28;;;;;;;;;;;23.70;61.80;;;;;;8494078;28;20003;-49
2023/08/17 01:50:28;;;;;;;;;;;23.70;61.70;;;;;;8494165;28;19911;-49
2023/08/17 01:54:29;;;;;;;;;;;23.70;61.80;;;;;;8498471;27;19917;-49
2023/08/17 01:58:29;;;;;;;;;;;23.70;61.70;;;;;;8500709;27;19922;-50
2023/08/17 02:02:30;;;;;;;;;;;23.70;61.70;;;;;;8482781;27;19911;-50
2023/08/17 02:06:30;;;;;;;;;;;23.70;61.80;;;;;;8500682;27;19911;-50
2023/08/17 02:10:31;;;;;;;;;;;23.70;61.80;;;;;;8500419;27;19912;-50
2023/08/17 02:14:31;;;;;;;;;;;23.70;62.60;;;;;;8500261;27;19907;-51
2023/08/17 02:18:34;;;;;;;;;;;23.70;61.80;;;;;;8500115;27;19921;-49
2023/08/17 02:22:35;;;;;;;;;;;23.70;61.80;;;;;;8500179;27;19907;-48
2023/08/17 02:26:35;;;;;;;;;;;23.70;61.70;;;;;;8500159;27;19918;-51
2023/08/17 02:30:36;;;;;;;;;;;23.70;61.80;;;;;;8499918;27;19918;-51
2023/08/17 02:34:36;;;;;;;;;;;23.70;61.70;;;;;;8500029;27;19912;-50
2023/08/17 02:38:37;;;;;;;;;;;23.70;61.70;;;;;;8499506;27;19923;-50
2023/08/17 02:42:39;;;;;;;;;;;23.70;61.70;;;;;;8499389;27;19918;-49
2023/08/17 02:46:40;;;;;;;;;;;23.70;61.80;;;;;;8499529;27;20296;-49
2023/08/17 02:50:40;;;;;;;;;;;23.70;61.80;;;;;;8499200;27;20455;-49
2023/08/17 02:54:41;;;;;;;;;;;23.70;61.70;;;;;;8499539;27;19912;-49
2023/08/17 02:58:41;;;;;;;;;;;23.70;61.70;;;;;;8498978;27;19923;-49
2023/08/17 03:02:42;;;;;;;;;;;23.70;61.70;;;;;;8515298;27;19923;-50
2023/08/17 03:06:42;;;;;;;;;;;23.70;62.00;;;;;;8514125;27;20288;-49
2023/08/17 03:10:43;;;;;;;;;;;23.70;61.70;;;;;;8499198;27;20002;-51
2023/08/17 03:14:43;;;;;;;;;;;23.70;61.80;;;;;;8498298;27;19923;-50
2023/08/17 03:18:44;;;;;;;;;;;23.70;61.80;;;;;;8498272;27;19912;-49
2023/08/17 03:22:44;;;;;;;;;;;23.70;61.80;;;;;;8498157;27;20003;-49
2023/08/17 03:26:45;;;;;;;;;;;23.70;61.80;;;;;;8498229;27;20340;-49
2023/08/17 03:30:45;;;;;;;;;;;23.60;61.70;;;;;;8498090;27;19938;-49
2023/08/17 03:34:46;;;;;;;;;;;23.70;61.80;;;;;;8497943;27;19918;-51
2023/08/17 03:38:46;;;;;;;;;;;23.70;61.80;;;;;;8497521;27;19923;-50
2023/08/17 03:42:47;;;;;;;;;;;23.70;61.80;;;;;;8497501;27;20241;-49
2023/08/17 03:46:47;;;;;;;;;;;23.70;61.80;;;;;;8497253;27;19935;-49
2023/08/17 03:50:52;;;;;;;;;;;23.70;61.80;;;;;;8461995;27;20067;-48
2023/08/17 03:54:53;;;;;;;;;;;23.70;61.80;;;;;;8497520;27;20281;-49
2023/08/17 03:58:53;;;;;;;;;;;23.70;61.80;;;;;;8496770;27;19916;-49
2023/08/17 04:02:54;;;;;;;;;;;23.70;61.80;;;;;;8497140;27;19912;-49
2023/08/17 04:06:54;;;;;;;;;;;23.70;61.80;;;;;;8496468;27;19960;-51
2023/08/17 04:10:55;;;;;;;;;;;23.60;61.70;;;;;;8496480;27;19957;-51
2023/08/17 04:14:55;;;;;;;;;;;23.70;61.80;;;;;;8496254;27;19920;-50
2023/08/17 04:18:56;;;;;;;;;;;23.70;61.80;;;;;;8495495;27;19915;-49
2023/08/17 04:22:57;;;;;;;;;;;23.70;61.80;;;;;;8496254;27;19911;-49
2023/08/17 04:26:57;;;;;;;;;;;23.70;61.80;;;;;;8478041;27;19912;-49
2023/08/17 04:30:58;;;;;;;;;;;23.70;61.80;;;;;;8495903;27;20325;-51
2023/08/17 04:34:58;;;;;;;;;;;23.70;61.80;;;;;;8495853;27;19968;-50
2023/08/17 04:38:59;;;;;;;;;;;23.70;61.80;;;;;;8495579;27;20376;-49
2023/08/17 04:42:59;;;;;;;;;;;23.70;61.80;;;;;;8495416;27;20008;-49
2023/08/17 04:47:00;;;;;;;;;;;23.70;61.80;;;;;;8495710;27;19964;-49
2023/08/17 04:51:00;;;;;;;;;;;23.70;61.80;;;;;;8495128;27;20378;-50
2023/08/17 04:55:01;;;;;;;;;;;23.70;61.80;;;;;;8495386;27;20290;-50
2023/08/17 04:59:01;;;;;;;;;;;23.70;61.80;;;;;;8495265;27;19915;-51
2023/08/17 05:03:03;;;;;;;;;;;23.70;61.80;;;;;;8494964;27;19912;-52
2023/08/17 05:07:03;;;;;;;;;;;23.70;61.80;;;;;;8495230;27;19919;-51
2023/08/17 05:11:04;;;;;;;;;;;23.70;61.80;;;;;;8476692;27;19912;-50
2023/08/17 05:15:05;;;;;;;;;;;23.60;61.70;;;;;;8494423;27;19924;-51
2023/08/17 05:19:05;;;;;;;;;;;23.70;61.80;;;;;;8494797;27;20386;-50
2023/08/17 05:23:06;;;;;;;;;;;23.70;61.80;;;;;;8494783;27;20436;-51
2023/08/17 05:27:07;;;;;;;;;;;23.70;61.80;;;;;;8495117;27;19915;-49
2023/08/17 05:31:08;;;;;;;;;;;23.70;61.80;;;;;;8494468;28;20405;-51
2023/08/17 05:35:08;;;;;;;;;;;23.70;61.80;;;;;;8494317;28;19918;-51
2023/08/17 05:39:09;;;;;;;;;;;23.60;61.70;;;;;;8494185;28;19915;-50
2023/08/17 05:43:09;;;;;;;;;;;23.70;61.80;;;;;;8494407;28;20003;-50
2023/08/17 05:47:10;;;;;;;;;;;23.60;61.70;;;;;;8494245;28;20368;-51
2023/08/17 05:51:11;;;;;;;;;;;23.60;61.80;;;;;;8494198;28;19907;-49
2023/08/17 05:55:11;;;;;;;;;;;23.70;61.80;;;;;;8494596;27;19911;-52
2023/08/17 05:59:12;;;;;;;;;;;23.60;61.80;;;;;;8493864;28;19915;-48
2023/08/17 06:03:12;;;;;;;;;;;23.70;61.80;;;;;;8494662;28;20354;-50
2023/08/17 06:07:13;;;;;;;;;;;23.60;61.70;;;;;;8493899;28;19954;-50
2023/08/17 06:11:13;;;;;;;;;;;23.70;61.80;;;;;;8494021;28;19911;-49
2023/08/17 06:15:14;;;;;;;;;;;23.60;61.70;;;;;;8493842;28;20362;-50
2023/08/17 06:19:15;;;;;;;;;;;23.60;61.70;;;;;;8493653;28;19915;-49
2023/08/17 06:23:15;;;;;;;;;;;23.60;61.70;;;;;;8493674;28;20563;-50
2023/08/17 06:27:16;;;;;;;;;;;23.70;61.80;;;;;;8493876;27;19968;-50
2023/08/17 06:31:16;;;;;;;;;;;23.70;61.80;;;;;;8494008;28;19908;-52
2023/08/17 06:35:17;;;;;;;;;;;23.60;61.70;;;;;;8493527;28;20353;-51
2023/08/17 06:39:17;;;;;;;;;;;23.70;61.80;;;;;;8493677;27;19919;-49
2023/08/17 06:43:18;;;;;;;;;;;23.70;61.80;;;;;;8499337;27;19968;-50
2023/08/17 06:47:18;;;;;;;;;;;23.70;61.80;;;;;;8515638;27;19915;-50
2023/08/17 06:51:19;;;;;;;;;;;23.70;61.80;;;;;;8499318;27;20012;-49
2023/08/17 06:55:20;;;;;;;;;;;23.70;61.80;;;;;;8499251;27;19919;-52
2023/08/17 06:59:20;;;;;;;;;;;23.60;61.80;;;;;;8499105;27;19920;-50
2023/08/17 07:03:21;;;;;;;;;;;23.60;61.80;;;;;;8498947;27;19918;-49
2023/08/17 07:07:21;;;;;;;;;;;23.60;61.80;;;;;;8498551;27;20002;-49
2023/08/17 07:11:22;;;;;;;;;;;23.60;61.70;;;;;;8498800;27;19964;-50
2023/08/17 07:15:22;;;;;;;;;;;23.60;61.80;;;;;;8498374;27;19920;-50
2023/08/17 07:19:23;;;;;;;;;;;23.60;61.70;;;;;;8498221;27;19915;-50
2023/08/17 07:23:23;;;;;;;;;;;23.70;61.80;;;;;;8498616;27;19912;-51
2023/08/17 07:27:24;;;;;;;;;;;23.60;61.80;;;;;;8498305;27;20261;-50
2023/08/17 07:31:25;;;;;;;;;;;23.60;61.70;;;;;;8498225;27;19912;-49
2023/08/17 07:35:25;;;;;;;;;;;23.70;61.80;;;;;;8497979;27;19968;-49
2023/08/17 07:39:26;;;;;;;;;;;23.60;61.70;;;;;;8498642;27;19916;-51
2023/08/17 07:43:26;;;;;;;;;;;23.60;61.70;;;;;;8497671;27;19911;-51
2023/08/17 07:47:27;;;;;;;;;;;23.70;61.80;;;;;;8498282;27;19911;-51
2023/08/17 07:51:29;;;;;;;;;;;23.60;61.70;;;;;;8497113;27;19912;-50
2023/08/17 07:55:30;;;;;;;;;;;23.60;61.70;;;;;;8497349;27;19911;-51
2023/08/17 07:59:31;;;;;;;;;;;23.70;61.80;;;;;;8497042;27;19923;-50
2023/08/17 08:03:32;;;;;;;;;;;23.60;61.70;;;;;;8496632;27;19918;-49
2023/08/17 08:07:32;;;;;;;;;;;23.60;61.70;;;;;;8496966;27;20006;-50
2023/08/17 08:11:33;;;;;;;;;;;23.60;61.70;;;;;;8497227;27;19964;-51
2023/08/17 08:15:33;;;;;;;;;;;23.60;61.70;;;;;;8496413;27;19927;-49
2023/08/17 08:19:34;;;;;;;;;;;23.60;61.80;;;;;;8496235;27;19967;-49
2023/08/17 08:23:35;;;;;;;;;;;23.70;61.80;;;;;;8477853;27;19911;-51
2023/08/17 08:27:35;;;;;;;;;;;23.60;61.70;;;;;;8496495;27;19915;-51
2023/08/17 08:31:36;;;;;;;;;;;23.70;61.80;;;;;;8477696;27;20383;-51
2023/08/17 08:35:38;;;;;;;;;;;23.60;61.70;;;;;;8495837;27;19918;-50
2023/08/17 08:39:51;;;;;;;;;;;23.60;61.70;;;;;;8495630;27;20361;-48
2023/08/17 08:43:52;;;;;;;;;;;23.70;61.80;;;;;;8495375;27;19914;-50
2023/08/17 08:47:53;;;;;;;;;;;23.60;61.70;;;;;;8496126;27;19973;-51
2023/08/17 08:51:59;;;;;;;;;;;23.60;61.70;;;;;;8495785;27;19907;-50
2023/08/17 08:56:00;;;;;;;;;;;23.70;61.80;;;;;;8495287;27;20368;-51
2023/08/17 09:00:01;;;;;;;;;;;23.70;61.80;;;;;;8495708;27;19916;-51
2023/08/17 09:04:02;;;;;;;;;;;23.60;61.70;;;;;;8494725;27;19923;-49
2023/08/17 09:08:03;;;;;;;;;;;23.70;61.80;;;;;;8495070;27;19911;-50
2023/08/17 09:12:06;;;;;;;;;;;23.60;61.70;;;;;;8495417;27;19907;-51
2023/08/17 09:16:07;;;;;;;;;;;23.60;61.70;;;;;;8494902;27;19931;-49
2023/08/17 09:20:08;;;;;;;;;;;23.60;61.80;;;;;;8494950;27;19911;-50
2023/08/17 09:24:09;;;;;;;;;;;23.60;61.80;;;;;;8500249;27;19908;-49
2023/08/17 09:28:10;;;;;;;;;;;23.60;61.80;;;;;;8494879;27;19915;-48
2023/08/17 09:32:11;;;;;;;;;;;23.60;61.70;;;;;;8494843;28;19912;-50
2023/08/17 09:36:12;;;;;;;;;;;23.60;61.80;;;;;;8494875;28;20014;-49
2023/08/17 09:40:14;;;;;;;;;;;23.60;61.70;;;;;;8494648;28;19915;-51
2023/08/17 09:44:15;;;;;;;;;;;23.60;61.70;;;;;;8494139;28;19911;-51
2023/08/17 09:48:17;;;;;;;;;;;23.60;61.70;;;;;;8494243;28;20002;-51
2023/08/17 09:52:21;;;;;;;;;;;23.60;61.70;;;;;;8493983;28;19915;-49
2023/08/17 09:56:23;;;;;;;;;;;23.60;61.70;;;;;;8494451;27;19911;-50
2023/08/17 10:00:25;;;;;;;;;;;23.60;61.70;;;;;;8494095;28;19915;-51
2023/08/17 10:04:25;;;;;;;;;;;23.70;61.70;;;;;;8494027;28;19916;-49
2023/08/17 10:08:27;;;;;;;;;;;23.60;61.70;;;;;;8494152;28;19979;-50
2023/08/17 10:12:32;;;;;;;;;;;23.60;61.70;;;;;;8493980;28;19946;-50
2023/08/17 10:16:36;;;;;;;;;;;23.60;61.70;;;;;;8497432;27;19920;-50
2023/08/17 10:20:37;;;;;;;;;;;23.60;61.70;;;;;;8500099;27;19915;-50
2023/08/17 10:24:38;;;;;;;;;;;23.60;61.70;;;;;;8500653;27;19907;-51
2023/08/17 10:28:39;;;;;;;;;;;23.60;61.70;;;;;;8499837;27;19918;-49
2023/08/17 10:32:44;;;;;;;;;;;23.60;61.70;;;;;;8499853;27;19915;-51
2023/08/17 10:36:45;;;;;;;;;;;23.60;61.70;;;;;;8499688;27;19911;-49
2023/08/17 10:41:06;;;;;;;;;;;23.60;61.70;;;;;;8499586;27;19919;-51
2023/08/17 10:45:21;;;;;;;;;;;23.70;61.80;;;;;;8499423;27;19915;-49
2023/08/17 10:49:25;;;;;;;;;;;23.60;61.70;;;;;;8499271;27;19995;-49
2023/08/17 10:53:26;;;;;;;;;;;23.60;61.70;;;;;;8499340;27;19994;-49
2023/08/17 10:57:32;;;;;;;;;;;23.60;61.70;;;;;;8499718;27;19916;-49
2023/08/17 11:01:34;;;;;;;;;;;23.60;61.70;;;;;;8499189;27;20261;-49
2023/08/17 11:05:38;;;;;;;;;;;23.70;61.70;;;;;;8480822;27;19922;-50
2023/08/17 11:09:41;;;;;;;;;;;23.60;61.70;;;;;;8498816;27;20000;-50
2023/08/17 11:13:43;;;;;;;;;;;23.60;61.60;;;;;;8498534;27;19912;-50
2023/08/17 11:17:43;;;;;;;;;;;23.60;61.70;;;;;;8498155;27;20006;-50
2023/08/17 11:21:44;;;;;;;;;;;23.60;61.60;;;;;;8498517;27;19912;-50
2023/08/17 11:25:45;;;;;;;;;;;23.60;61.60;;;;;;8497901;27;19908;-49
2023/08/17 11:29:46;;;;;;;;;;;23.60;61.60;;;;;;8498037;27;20398;-50
2023/08/17 11:33:47;;;;;;;;;;;23.70;61.70;;;;;;8497819;27;20249;-51
2023/08/17 11:37:49;;;;;;;;;;;23.60;61.60;;;;;;8497882;27;20368;-51
2023/08/17 11:41:51;;;;;;;;;;;23.60;61.70;;;;;;8497462;27;20007;-49
2023/08/17 11:45:51;;;;;;;;;;;23.60;61.70;;;;;;8497583;27;19919;-50
2023/08/17 11:49:58;;;;;;;;;;;23.60;61.70;;;;;;8497469;27;19912;-51
2023/08/17 11:54:00;;;;;;;;;;;23.60;61.70;;;;;;8497394;27;19907;-51
2023/08/17 11:58:01;;;;;;;;;;;23.60;61.70;;;;;;8497363;27;20291;-49
2023/08/17 12:02:02;;;;;;;;;;;23.70;61.80;;;;;;8496905;27;19914;-50
2023/08/17 12:06:04;;;;;;;;;;;23.60;61.60;;;;;;8496955;27;20360;-51
2023/08/17 12:10:05;;;;;;;;;;;23.70;61.70;;;;;;8496473;27;19914;-49
2023/08/17 12:14:12;;;;;;;;;;;23.70;61.70;;;;;;8496468;27;20374;-50
2023/08/17 12:18:15;;;;;;;;;;;23.70;61.60;;;;;;8496299;27;20364;-51
2023/08/17 12:22:16;;;;;;;;;;;23.60;61.60;;;;;;8496260;27;19915;-51
2023/08/17 12:26:21;;;;;;;;;;;23.60;61.50;;;;;;8496359;27;20284;-49
2023/08/17 12:30:25;;;;;;;;;;;23.70;61.70;;;;;;8478122;27;19912;-49
2023/08/17 12:34:26;;;;;;;;;;;23.70;61.60;;;;;;8495709;27;19914;-49
2023/08/17 12:38:26;;;;;;;;;;;23.70;61.60;;;;;;8495164;27;20399;-49
2023/08/17 12:42:27;;;;;;;;;;;23.70;61.70;;;;;;8495820;27;19912;-49
2023/08/17 12:46:28;;;;;;;;;;;23.70;61.60;;;;;;8495458;27;19963;-49
2023/08/17 12:50:28;;;;;;;;;;;23.70;61.60;;;;;;8495755;27;20297;-48
2023/08/17 12:54:29;;;;;;;;;;;23.70;61.60;;;;;;8495746;27;19915;-50
2023/08/17 12:58:29;;;;;;;;;;;23.70;61.60;;;;;;8495327;27;19919;-51
2023/08/17 13:02:30;;;;;;;;;;;23.70;61.60;;;;;;8495249;27;20390;-51
2023/08/17 13:06:30;;;;;;;;;;;23.60;61.60;;;;;;8511168;27;20390;-51
2023/08/17 13:10:31;;;;;;;;;;;23.70;61.70;;;;;;8495284;27;19911;-51
2023/08/17 13:14:31;;;;;;;;;;;23.60;61.50;;;;;;8494886;27;19963;-51
2023/08/17 13:18:32;;;;;;;;;;;23.70;61.60;;;;;;8494687;27;20016;-51
2023/08/17 13:22:32;;;;;;;;;;;23.70;61.50;;;;;;8494813;27;19919;-50
2023/08/17 13:26:33;;;;;;;;;;;23.70;61.50;;;;;;8494962;27;19907;-49
2023/08/17 13:30:33;;;;;;;;;;;23.70;61.50;;;;;;8494442;28;20026;-51
2023/08/17 13:34:34;;;;;;;;;;;23.70;61.60;;;;;;8494722;28;19941;-50
2023/08/17 13:38:34;;;;;;;;;;;23.70;61.50;;;;;;8494568;28;20447;-50
2023/08/17 13:42:36;;;;;;;;;;;23.70;61.50;;;;;;8494733;28;19912;-49
2023/08/17 13:46:37;;;;;;;;;;;23.70;61.50;;;;;;8494188;28;19953;-50
2023/08/17 13:50:38;;;;;;;;;;;23.70;61.50;;;;;;8498921;27;19908;-50
2023/08/17 13:54:38;;;;;;;;;;;23.70;61.50;;;;;;8501392;27;19952;-49
2023/08/17 13:58:39;;;;;;;;;;;23.70;61.50;;;;;;8482554;27;20626;-51
2023/08/17 14:02:39;;;;;;;;;;;23.70;61.50;;;;;;8501001;27;19915;-49
2023/08/17 14:06:40;;;;;;;;;;;23.70;61.50;;;;;;8500856;27;20284;-50
2023/08/17 14:10:41;;;;;;;;;;;23.70;61.50;;;;;;8500604;27;19907;-49
2023/08/17 14:14:41;;;;;;;;;;;23.70;61.50;;;;;;8500316;27;19919;-50
2023/08/17 14:18:42;;;;;;;;;;;23.70;61.50;;;;;;8500191;27;20433;-49
2023/08/17 14:22:42;;;;;;;;;;;23.70;61.50;;;;;;8500043;27;19916;-49
2023/08/17 14:26:43;;;;;;;;;;;23.70;61.50;;;;;;8500478;27;20372;-48
2023/08/17 14:30:44;;;;;;;;;;;23.70;61.50;;;;;;8500063;27;19961;-51
2023/08/17 14:34:44;;;;;;;;;;;23.70;61.50;;;;;;8500776;27;19907;-50
2023/08/17 14:38:45;;;;;;;;;;;23.70;61.50;;;;;;8499502;27;20365;-49
2023/08/17 14:42:45;;;;;;;;;;;23.70;61.50;;;;;;8499639;27;19937;-49
2023/08/17 14:46:46;;;;;;;;;;;23.70;61.50;;;;;;8499247;27;19918;-49
2023/08/17 14:50:46;;;;;;;;;;;23.70;61.50;;;;;;8499342;27;19918;-50
2023/08/17 14:54:47;;;;;;;;;;;23.70;61.50;;;;;;8499353;27;19911;-48
2023/08/17 14:58:48;;;;;;;;;;;23.70;61.50;;;;;;8498985;27;19923;-50
2023/08/17 15:02:49;;;;;;;;;;;23.70;61.50;;;;;;8498229;27;19955;-51
2023/08/17 15:06:49;;;;;;;;;;;23.70;61.50;;;;;;8498603;27;19919;-51
2023/08/17 15:10:50;;;;;;;;;;;23.70;61.40;;;;;;8498942;27;19922;-50
2023/08/17 15:14:51;;;;;;;;;;;23.70;61.50;;;;;;8498327;27;19918;-50
2023/08/17 15:18:51;;;;;;;;;;;23.70;61.50;;;;;;8498549;27;19923;-51
2023/08/17 15:22:52;;;;;;;;;;;23.70;61.50;;;;;;8498299;27;20328;-52
2023/08/17 15:26:52;;;;;;;;;;;23.70;61.50;;;;;;8498535;27;19950;-51
2023/08/17 15:31:01;;;;;;;;;;;23.70;61.50;;;;;;8479652;27;20331;-50
2023/08/17 15:35:02;;;;;;;;;;;23.70;61.50;;;;;;8479662;27;19999;-49
2023/08/17 15:39:03;;;;;;;;;;;23.70;61.50;;;;;;8497584;27;19915;-49
2023/08/17 15:43:04;;;;;;;;;;;23.70;61.50;;;;;;8497524;27;20272;-49
2023/08/17 15:47:04;;;;;;;;;;;23.70;61.50;;;;;;8498033;27;20520;-50
2023/08/17 15:51:05;;;;;;;;;;;23.70;61.50;;;;;;8497356;27;19912;-51
2023/08/17 15:55:05;;;;;;;;;;;23.70;61.40;;;;;;8497683;27;19918;-49
2023/08/17 15:59:06;;;;;;;;;;;23.70;61.50;;;;;;8497011;27;19965;-49
2023/08/17 16:03:07;;;;;;;;;;;23.70;61.40;;;;;;8497326;27;19912;-49
2023/08/17 16:07:08;;;;;;;;;;;23.70;61.40;;;;;;8496955;27;19919;-50
2023/08/17 16:11:09;;;;;;;;;;;23.70;61.40;;;;;;8496601;27;20006;-51
2023/08/17 16:15:10;;;;;;;;;;;23.70;61.50;;;;;;8496395;27;19922;-51
2023/08/17 16:19:10;;;;;;;;;;;23.70;61.50;;;;;;8496464;27;19919;-49
2023/08/17 16:23:11;;;;;;;;;;;23.70;61.50;;;;;;8496158;27;19911;-51
2023/08/17 16:27:11;;;;;;;;;;;23.70;61.40;;;;;;8496396;27;19919;-49
2023/08/17 16:31:12;;;;;;;;;;;23.70;61.40;;;;;;8496056;27;20452;-49
2023/08/17 16:35:14;;;;;;;;;;;23.70;61.50;;;;;;8495972;27;19960;-50
2023/08/17 16:39:14;;;;;;;;;;;23.70;61.50;;;;;;8495807;27;19959;-54
2023/08/17 16:43:15;;;;;;;;;;;23.70;61.50;;;;;;8495715;27;19968;-49
2023/08/17 16:47:15;;;;;;;;;;;23.70;61.50;;;;;;8495573;27;19972;-49
2023/08/17 16:51:16;;;;;;;;;;;23.70;61.50;;;;;;8495795;27;19912;-51
2023/08/17 16:55:16;;;;;;;;;;;23.70;61.50;;;;;;8477632;27;20375;-50
2023/08/17 16:59:17;;;;;;;;;;;23.70;62.20;;;;;;8495217;27;19916;-50
2023/08/17 17:03:17;;;;;;;;;;;23.70;61.50;;;;;;8495167;27;19970;-48
2023/08/17 17:07:18;;;;;;;;;;;23.70;61.50;;;;;;8495029;27;19911;-50
2023/08/17 17:11:19;;;;;;;;;;;23.70;61.50;;;;;;8495674;27;19908;-49
2023/08/17 17:15:19;;;;;;;;;;;23.70;61.50;;;;;;8495279;27;19924;-49
2023/08/17 17:19:20;;;;;;;;;;;23.70;61.40;;;;;;8495491;27;19923;-50
2023/08/17 17:23:20;;;;;;;;;;;23.70;61.50;;;;;;8499110;27;20291;-49
2023/08/17 17:27:21;;;;;;;;;;;23.70;61.50;;;;;;8495006;27;19960;-49
2023/08/17 17:31:21;;;;;;;;;;;23.70;61.40;;;;;;8510414;27;19912;-49
2023/08/17 17:35:22;;;;;;;;;;;23.70;61.40;;;;;;8496464;28;19994;-51
2023/08/17 17:39:22;;;;;;;;;;;23.70;61.40;;;;;;8494281;28;19922;-51
2023/08/17 17:43:23;;;;;;;;;;;23.70;61.40;;;;;;8494356;28;19951;-50
2023/08/17 17:47:24;;;;;;;;;;;23.70;61.40;;;;;;8494160;28;20003;-49
2023/08/17 17:51:25;;;;;;;;;;;23.70;61.50;;;;;;8501156;27;19950;-50
2023/08/17 17:55:25;;;;;;;;;;;23.70;61.50;;;;;;8519561;27;19911;-52
2023/08/17 17:59:26;;;;;;;;;;;23.70;61.50;;;;;;8510204;27;20431;-51
2023/08/17 18:03:26;;;;;;;;;;;23.70;61.50;;;;;;8493921;28;19918;-50
2023/08/17 18:07:27;;;;;;;;;;;23.70;61.50;;;;;;8494470;28;19911;-51
2023/08/17 18:11:29;;;;;;;;;;;23.70;61.50;;;;;;8494043;28;19911;-51
2023/08/17 18:15:29;;;;;;;;;;;23.70;61.50;;;;;;8493843;28;19922;-50
2023/08/17 18:19:30;;;;;;;;;;;23.70;61.50;;;;;;8493789;28;19923;-49
2023/08/17 18:23:30;;;;;;;;;;;23.70;61.50;;;;;;8493622;28;19942;-51
2023/08/17 18:27:35;;;;;;;;;;;23.70;61.50;;;;;;8493663;27;20421;-51
2023/08/17 18:31:40;;;;;;;;;;;23.70;61.50;;;;;;8493764;28;19954;-50
2023/08/17 18:35:40;;;;;;;;;;;23.70;61.50;;;;;;8494225;27;19922;-48
2023/08/17 18:39:41;;;;;;;;;;;23.70;61.50;;;;;;8499881;27;20367;-49
2023/08/17 18:43:42;;;;;;;;;;;23.70;61.50;;;;;;8499399;27;20027;-51
2023/08/17 18:47:42;;;;;;;;;;;23.70;61.50;;;;;;8499623;27;20149;-51
2023/08/17 18:51:43;;;;;;;;;;;23.70;61.50;;;;;;8499509;27;19911;-51
2023/08/17 18:55:44;;;;;;;;;;;23.70;61.50;;;;;;8499407;27;20422;-49
2023/08/17 18:59:44;;;;;;;;;;;23.70;61.50;;;;;;8498977;27;20269;-51
2023/08/17 19:03:45;;;;;;;;;;;23.70;61.50;;;;;;8499291;27;19912;-49
2023/08/17 19:07:45;;;;;;;;;;;23.70;61.50;;;;;;8498746;27;19912;-48
2023/08/17 19:11:46;;;;;;;;;;;23.70;61.50;;;;;;8498712;27;19947;-50
2023/08/17 19:15:47;;;;;;;;;;;23.70;61.50;;;;;;8498652;27;19920;-50
2023/08/17 19:19:47;;;;;;;;;;;23.70;61.50;;;;;;8498601;27;20006;-48
2023/08/17 19:23:48;;;;;;;;;;;23.70;61.50;;;;;;8498534;27;19911;-52
2023/08/17 19:27:48;;;;;;;;;;;23.70;61.50;;;;;;8498711;27;19907;-50
2023/08/17 19:31:50;;;;;;;;;;;23.70;61.50;;;;;;8499148;27;19918;-49
2023/08/17 19:35:50;;;;;;;;;;;23.70;61.50;;;;;;8497825;27;20265;-50
2023/08/17 19:39:51;;;;;;;;;;;23.70;61.50;;;;;;8498022;27;19951;-49
2023/08/17 19:43:52;;;;;;;;;;;23.70;61.50;;;;;;8497503;27;19995;-49
2023/08/17 19:47:52;;;;;;;;;;;23.70;61.50;;;;;;8497419;27;20368;-48
2023/08/17 19:51:54;;;;;;;;;;;23.70;61.50;;;;;;8497504;27;19919;-49
2023/08/17 19:55:58;;;;;;;;;;;23.70;61.50;;;;;;8497417;27;19907;-50
2023/08/17 19:59:58;;;;;;;;;;;23.70;61.50;;;;;;8497151;27;20015;-51
2023/08/17 20:04:02;;;;;;;;;;;23.70;61.50;;;;;;8496918;27;19923;-49
2023/08/17 20:08:03;;;;;;;;;;;23.70;61.50;;;;;;8496874;27;20304;-49
2023/08/17 20:12:05;;;;;;;;;;;23.70;61.50;;;;;;8478470;27;20252;-50
2023/08/17 20:16:06;;;;;;;;;;;23.70;61.50;;;;;;8496344;27;19960;-49
2023/08/17 20:20:09;;;;;;;;;;;23.70;61.50;;;;;;8496743;27;19950;-49
2023/08/17 20:24:10;;;;;;;;;;;23.70;61.60;;;;;;8496487;27;20123;-51
2023/08/17 20:28:10;;;;;;;;;;;23.70;61.50;;;;;;8496396;27;19948;-49
2023/08/17 20:32:11;;;;;;;;;;;23.70;61.50;;;;;;8496434;27;19912;-49
2023/08/17 20:36:11;;;;;;;;;;;23.70;61.50;;;;;;8495925;27;19919;-51
2023/08/17 20:40:12;;;;;;;;;;;23.70;61.50;;;;;;8496352;27;19964;-51
2023/08/17 20:44:13;;;;;;;;;;;23.70;61.50;;;;;;8495640;27;20334;-51
2023/08/17 20:48:14;;;;;;;;;;;23.70;61.50;;;;;;8495496;27;20002;-51
2023/08/17 20:52:14;;;;;;;;;;;23.70;61.50;;;;;;8495740;27;20280;-50
2023/08/17 20:56:15;;;;;;;;;;;23.70;62.30;;;;;;8495752;27;19911;-49
2023/08/17 21:00:18;;;;;;;;;;;23.70;61.50;;;;;;8494383;27;19907;-49
2023/08/17 21:04:18;;;;;;;;;;;23.70;61.50;;;;;;8495328;27;19907;-49
2023/08/17 21:08:19;;;;;;;;;;;23.70;61.50;;;;;;8495037;27;19994;-50
2023/08/17 21:12:19;;;;;;;;;;;23.70;61.50;;;;;;8495379;27;19965;-49
2023/08/17 21:16:20;;;;;;;;;;;23.70;61.50;;;;;;8494894;27;20376;-49
2023/08/17 21:20:20;;;;;;;;;;;23.70;61.50;;;;;;8494664;27;19922;-49
2023/08/17 21:24:23;;;;;;;;;;;23.70;61.50;;;;;;8494026;27;20215;-50
2023/08/17 21:28:24;;;;;;;;;;;23.70;61.50;;;;;;8494849;27;20653;-49
2023/08/17 21:32:24;;;;;;;;;;;23.70;61.50;;;;;;8494667;27;20399;-49
2023/08/17 21:36:26;;;;;;;;;;;23.70;61.50;;;;;;8494286;28;20300;-50
2023/08/17 21:40:26;;;;;;;;;;;23.70;61.50;;;;;;8494455;28;19912;-49
2023/08/17 21:44:30;;;;;;;;;;;23.70;61.50;;;;;;8494129;28;20000;-50
2023/08/17 21:48:30;;;;;;;;;;;23.70;61.50;;;;;;8494395;28;19915;-49
2023/08/17 21:52:31;;;;;;;;;;;23.70;61.50;;;;;;8494148;28;20555;-51
2023/08/17 21:56:31;;;;;;;;;;;23.70;61.50;;;;;;8494186;27;19915;-51
2023/08/17 22:00:32;;;;;;;;;;;23.70;61.50;;;;;;8494355;28;19912;-50
2023/08/17 22:04:32;;;;;;;;;;;23.70;61.50;;;;;;8494073;28;20387;-49
2023/08/17 22:08:33;;;;;;;;;;;23.70;61.50;;;;;;8493762;28;19912;-49
2023/08/17 22:12:34;;;;;;;;;;;23.70;61.50;;;;;;8499637;27;19911;-52
2023/08/17 22:16:35;;;;;;;;;;;23.70;61.50;;;;;;8500841;27;19973;-51
2023/08/17 22:20:38;;;;;;;;;;;23.70;61.50;;;;;;8500550;27;19912;-50
2023/08/17 22:24:41;;;;;;;;;;;23.70;61.50;;;;;;8500486;27;19950;-50
2023/08/17 22:28:41;;;;;;;;;;;23.70;61.50;;;;;;8500338;27;20006;-51
2023/08/17 22:32:42;;;;;;;;;;;23.70;61.50;;;;;;8500082;27;19911;-51
2023/08/17 22:36:42;;;;;;;;;;;23.70;61.50;;;;;;8499793;27;20002;-50
2023/08/17 22:40:43;;;;;;;;;;;23.70;61.50;;;;;;8499748;27;19916;-50
2023/08/17 22:44:43;;;;;;;;;;;23.70;61.50;;;;;;8499505;27;19919;-49
2023/08/17 22:48:44;;;;;;;;;;;23.70;61.50;;;;;;8499868;27;19912;-50
2023/08/17 22:52:44;;;;;;;;;;;23.70;61.60;;;;;;8499435;27;19939;-49
2023/08/17 22:56:45;;;;;;;;;;;23.70;61.50;;;;;;8499499;27;20013;-49
2023/08/17 23:00:45;;;;;;;;;;;23.70;61.50;;;;;;8499125;27;19911;-49
2023/08/17 23:04:46;;;;;;;;;;;23.70;61.50;;;;;;8498963;27;19919;-49
2023/08/17 23:08:47;;;;;;;;;;;23.70;61.50;;;;;;8498910;27;19912;-51
2023/08/17 23:12:47;;;;;;;;;;;23.70;61.50;;;;;;8499168;27;20018;-50
2023/08/17 23:16:48;;;;;;;;;;;23.70;61.50;;;;;;8498508;27;19961;-50
2023/08/17 23:20:49;;;;;;;;;;;23.70;61.50;;;;;;8498094;27;19908;-50